Time;durP1;ratioP1;P1;durP2;ratioP2;P2;SDS_P1;SDS_P2;PMS_P1;PMS_P2;Temp;Humidity;BMP_temperature;BMP_pressure;BME280_temperature;BME280_humidity;BME280_pressure;Samples;Min_cycle;Max_cycle;Signal;HPM_P1;HPM_P2
2023/07/27 00:02:01;;;;;;;7.95;3.33;;;;;;;-144.73;100.00;54473.38;4962287;28;20035;-73
2023/07/27 00:04:27;;;;;;;4.53;2.70;;;;;;;-144.73;100.00;54452.84;4944188;28;20039;-73
2023/07/27 00:06:53;;;;;;;9.45;3.30;;;;;;;-144.73;100.00;54479.53;4958758;28;20089;-73
2023/07/27 00:09:18;;;;;;;7.93;3.03;;;;;;;-144.73;100.00;54473.38;4961139;28;20040;-73
2023/07/27 00:11:43;;;;;;;5.78;2.53;;;;;;;-144.73;100.00;54485.69;4972749;28;20025;-73
2023/07/27 00:14:09;;;;;;;5.85;2.72;;;;;;;-144.73;100.00;54493.91;4979443;28;20036;-74
2023/07/27 00:16:34;;;;;;;7.30;3.22;;;;;;;-144.73;100.00;54489.81;4937393;28;20014;-73
2023/07/27 00:18:59;;;;;;;5.93;3.38;;;;;;;-144.73;100.00;54485.69;4965892;28;20079;-74
2023/07/27 00:21:25;;;;;;;5.97;3.08;;;;;;;-144.73;100.00;54481.59;4945605;28;20032;-74
2023/07/27 00:23:50;;;;;;;6.38;2.65;;;;;;;-144.73;100.00;54469.28;4940849;28;20090;-73
2023/07/27 00:26:15;;;;;;;5.25;1.80;;;;;;;-144.73;100.00;54481.59;4913535;28;20020;-73
2023/07/27 00:28:41;;;;;;;5.13;2.65;;;;;;;-144.73;100.00;54495.97;4925838;28;20056;-74
2023/07/27 00:31:06;;;;;;;4.75;2.78;;;;;;;-144.73;100.00;54506.22;4953613;28;20067;-74
2023/07/27 00:33:32;;;;;;;5.75;2.55;;;;;;;-144.73;100.00;54465.16;4960628;28;20034;-74
2023/07/27 00:35:58;;;;;;;5.80;2.63;;;;;;;-144.73;100.00;54489.81;4935105;28;20031;-74
2023/07/27 00:38:23;;;;;;;7.75;2.75;;;;;;;-144.73;100.00;54545.22;4936459;28;20066;-73
2023/07/27 00:40:49;;;;;;;6.07;3.83;;;;;;;-144.73;100.00;54510.31;4947532;28;20027;-74
2023/07/27 00:43:14;;;;;;;7.72;3.13;;;;;;;-144.73;100.00;54436.44;4923981;28;20032;-74
2023/07/27 00:45:40;;;;;;;7.28;2.75;;;;;;;-144.73;100.00;54500.06;4935133;28;20028;-74
2023/07/27 00:48:08;;;;;;;6.40;2.72;;;;;;;-144.73;100.00;54473.38;4945412;28;20064;-74
2023/07/27 00:50:35;;;;;;;6.30;3.55;;;;;;;-144.73;100.00;54493.91;4910952;28;20016;-74
2023/07/27 00:53:04;;;;;;;3.97;2.60;;;;;;;-144.73;100.00;54510.31;4910660;28;20107;-74
2023/07/27 00:55:30;;;;;;;6.85;2.53;;;;;;;-144.73;100.00;54487.75;4910609;28;20035;-74
2023/07/27 00:57:56;;;;;;;6.15;3.13;;;;;;;-144.73;100.00;54487.75;4910003;28;20040;-74
2023/07/27 01:00:22;;;;;;;5.90;2.95;;;;;;;-144.73;100.00;54469.28;4954890;28;20031;-74
2023/07/27 01:02:47;;;;;;;5.72;3.30;;;;;;;-144.73;100.00;54448.75;4967300;28;20033;-74
2023/07/27 01:05:12;;;;;;;9.43;3.17;;;;;;;-144.73;100.00;54463.13;4992777;28;20022;-74
2023/07/27 01:07:38;;;;;;;6.68;3.20;;;;;;;-144.73;100.00;54452.84;4969124;28;20060;-74
2023/07/27 01:10:04;;;;;;;8.32;3.22;;;;;;;-144.73;100.00;54498.00;4964655;28;20106;-74
2023/07/27 01:12:39;;;;;;;7.10;3.90;;;;;;;-144.73;100.00;54483.66;4923237;28;20020;-74
2023/07/27 01:15:13;;;;;;;8.57;3.63;;;;;;;-144.73;100.00;54465.16;4918364;28;20021;-74
2023/07/27 01:17:51;;;;;;;9.68;3.33;;;;;;;-144.73;100.00;54461.06;4976679;28;20046;-74
2023/07/27 01:20:26;;;;;;;11.95;3.85;;;;;;;-144.73;100.00;54477.47;4972620;28;20085;-74
2023/07/27 01:23:07;;;;;;;6.38;3.65;;;;;;;-144.73;100.00;54518.53;5008258;28;20565;-74
2023/07/27 01:25:56;;;;;;;11.00;4.25;;;;;;;-144.73;100.00;54456.97;4971430;28;20018;-74
2023/07/27 01:28:58;;;;;;;13.30;4.63;;;;;;;-144.73;100.00;54481.59;4950460;28;20038;-74
2023/07/27 01:31:26;;;;;;;8.57;4.28;;;;;;;-144.73;100.00;54493.91;4976880;28;20032;-74
2023/07/27 01:34:26;;;;;;;10.25;4.30;;;;;;;-144.73;100.00;54473.38;4964433;28;20061;-75
2023/07/27 01:37:08;;;;;;;10.38;5.07;;;;;;;-144.73;100.00;54452.84;4929620;28;20499;-74
2023/07/27 01:39:37;;;;;;;;;;;;;;;-144.73;100.00;54459.00;4910452;28;20059;-74
2023/07/27 01:42:04;;;;;;;9.77;4.90;;;;;;;-144.73;100.00;54518.53;4911093;28;19922;-73
2023/07/27 01:44:32;;;;;;;10.98;4.10;;;;;;;-144.73;100.00;54493.91;4909667;28;20123;-73
2023/07/27 01:47:00;;;;;;;8.63;4.90;;;;;;;-144.73;100.00;54465.16;4929012;28;20021;-74
2023/07/27 01:49:28;;;;;;;10.38;5.32;;;;;;;-144.73;100.00;54469.28;4909452;28;20055;-74
2023/07/27 01:51:54;;;;;;;13.52;5.18;;;;;;;-144.73;100.00;54510.31;5009183;28;20024;-74
2023/07/27 01:54:20;;;;;;;11.73;5.97;;;;;;;-144.73;100.00;54477.47;5009152;28;20381;-73
2023/07/27 01:56:47;;;;;;;19.80;5.47;;;;;;;-144.73;100.00;54440.53;4915022;28;20040;-73
2023/07/27 01:59:14;;;;;;;26.60;5.43;;;;;;;-144.73;100.00;54506.22;4919949;28;20032;-74
2023/07/27 02:01:42;;;;;;;13.77;7.30;;;;;;;-144.73;100.00;54514.44;4977515;28;20105;-73
2023/07/27 02:04:08;;;;;;;9.68;5.82;;;;;;;-144.73;100.00;54477.47;4980002;28;20101;-73
2023/07/27 02:06:34;;;;;;;17.05;6.28;;;;;;;-144.73;100.00;54489.81;4949347;28;20104;-73
2023/07/27 02:09:00;;;;;;;19.77;7.10;;;;;;;-144.73;100.00;54498.00;4978622;28;20030;-73
2023/07/27 02:11:26;;;;;;;12.25;6.50;;;;;;;-144.73;100.00;54498.00;4951004;28;20028;-74
2023/07/27 02:13:59;;;;;;;18.42;7.57;;;;;;;-144.73;100.00;54456.97;4934663;28;20028;-73
2023/07/27 02:16:36;;;;;;;19.88;7.60;;;;;;;-144.73;100.00;54493.91;4944061;28;20021;-74
2023/07/27 02:19:04;;;;;;;13.55;7.55;;;;;;;-144.73;100.00;54485.69;4934711;28;20032;-72
2023/07/27 02:21:31;;;;;;;20.50;7.25;;;;;;;-144.73;100.00;54493.91;4913525;28;20032;-74
2023/07/27 02:23:58;;;;;;;14.15;7.38;;;;;;;-144.73;100.00;54477.47;4913791;28;20032;-72
2023/07/27 02:26:23;;;;;;;19.88;7.45;;;;;;;-144.73;100.00;54456.97;4913136;29;20030;-73
2023/07/27 02:28:49;;;;;;;14.55;6.93;;;;;;;-144.73;100.00;54489.81;4913884;28;20466;-73
2023/07/27 02:31:14;;;;;;;17.02;7.45;;;;;;;-144.73;100.00;54481.59;4914580;29;20028;-73
2023/07/27 02:33:39;;;;;;;16.02;7.72;;;;;;;-144.73;100.00;54522.63;4913175;28;20063;-72
2023/07/27 02:36:05;;;;;;;26.67;9.57;;;;;;;-144.73;100.00;54500.06;4912579;28;20510;-72
2023/07/27 02:38:31;;;;;;;17.85;7.70;;;;;;;-144.73;100.00;54479.53;4917048;28;20089;-73
2023/07/27 02:40:56;;;;;;;19.85;8.10;;;;;;;-144.73;100.00;54498.00;4938127;28;20062;-72
2023/07/27 02:43:21;;;;;;;18.35;8.30;;;;;;;-144.73;100.00;54493.91;4965586;28;20040;-73
2023/07/27 02:45:47;;;;;;;18.98;7.93;;;;;;;-144.73;100.00;54479.53;4970685;28;20029;-74
2023/07/27 02:48:24;;;;;;;22.83;8.88;;;;;;;-144.73;100.00;54498.00;4968802;28;20051;-72
2023/07/27 02:50:51;;;;;;;23.55;9.07;;;;;;;-144.73;100.00;54473.38;4950859;28;20104;-72
2023/07/27 02:53:17;;;;;;;19.73;8.05;;;;;;;-144.73;100.00;54481.59;4950958;28;20029;-74
2023/07/27 02:55:42;;;;;;;27.33;9.55;;;;;;;-144.73;100.00;54493.91;4912827;28;20020;-73
2023/07/27 02:58:08;;;;;;;23.25;10.77;;;;;;;-144.73;100.00;54485.69;4972748;28;20412;-73
2023/07/27 03:00:33;;;;;;;22.10;10.23;;;;;;;-144.73;100.00;54514.44;4985120;28;20026;-73
2023/07/27 03:03:00;;;;;;;17.35;8.82;;;;;;;-144.73;100.00;54510.31;4963830;28;20103;-73
2023/07/27 03:05:26;;;;;;;23.23;10.02;;;;;;;-144.73;100.00;54539.06;4956521;28;20024;-73
2023/07/27 03:07:52;;;;;;;21.45;9.27;;;;;;;-144.73;100.00;54495.97;4919035;28;20498;-73
2023/07/27 03:10:17;;;;;;;28.90;11.38;;;;;;;-144.73;100.00;54522.63;4908692;28;20110;-73
2023/07/27 03:12:43;;;;;;;26.08;11.82;;;;;;;-144.73;100.00;54495.97;5010877;28;20100;-72
2023/07/27 03:15:08;;;;;;;30.67;13.13;;;;;;;-144.73;100.00;54514.44;4935315;28;20013;-74
2023/07/27 03:17:34;;;;;;;25.73;11.05;;;;;;;-144.73;100.00;54500.06;4971240;28;20024;-73
2023/07/27 03:19:59;;;;;;;23.85;11.23;;;;;;;-144.73;100.00;54473.38;4974822;28;20111;-74
2023/07/27 03:22:25;;;;;;;31.20;11.57;;;;;;;-144.73;100.00;54491.84;4930668;28;20061;-73
2023/07/27 03:24:50;;;;;;;20.10;10.82;;;;;;;-144.73;100.00;54465.16;4952462;28;20022;-73
2023/07/27 03:27:16;;;;;;;28.85;13.15;;;;;;;-144.73;100.00;54477.47;4957171;28;20028;-73
2023/07/27 03:29:41;;;;;;;23.50;9.27;;;;;;;-144.73;100.00;54493.91;4970889;28;20032;-73
2023/07/27 03:32:07;;;;;;;28.35;12.52;;;;;;;-144.73;100.00;54498.00;4938341;28;20057;-73
2023/07/27 03:34:32;;;;;;;30.40;13.02;;;;;;;-144.73;100.00;54502.13;4945559;28;20067;-74
2023/07/27 03:36:58;;;;;;;26.98;12.63;;;;;;;-144.73;100.00;54514.44;4943183;28;20024;-73
2023/07/27 03:39:23;;;;;;;37.95;11.55;;;;;;;-144.73;100.00;54502.13;4934556;28;20064;-73
2023/07/27 03:41:48;;;;;;;26.80;12.80;;;;;;;-144.73;100.00;54498.00;4938149;28;20031;-73
2023/07/27 03:44:14;;;;;;;31.35;13.63;;;;;;;-144.73;100.00;54522.63;4970520;28;20076;-73
2023/07/27 03:46:39;;;;;;;27.70;13.10;;;;;;;-144.73;100.00;54522.63;4982069;28;20042;-73
2023/07/27 03:49:05;;;;;;;30.00;13.48;;;;;;;-144.73;100.00;54489.81;4967525;28;20084;-73
2023/07/27 03:51:30;;;;;;;36.70;14.35;;;;;;;-144.73;100.00;54547.28;4936477;28;20028;-73
2023/07/27 03:53:56;;;;;;;34.08;13.73;;;;;;;-144.73;100.00;54526.75;4937000;28;20119;-73
2023/07/27 03:56:21;;;;;;;25.27;12.90;;;;;;;-144.73;100.00;54522.63;4969134;28;20025;-73
2023/07/27 03:58:46;;;;;;;26.33;13.23;;;;;;;-144.73;100.00;54518.53;4948698;28;20121;-72
2023/07/27 04:01:12;;;;;;;37.85;11.50;;;;;;;-144.73;100.00;54530.84;4966235;28;20451;-72
2023/07/27 04:03:37;;;;;;;24.73;11.95;;;;;;;-144.73;100.00;54493.91;4986432;28;20061;-73
2023/07/27 04:06:02;;;;;;;30.58;12.00;;;;;;;-144.73;100.00;54481.59;4990432;28;20059;-73
2023/07/27 04:08:28;;;;;;;22.88;12.23;;;;;;;-144.73;100.00;54493.91;4943813;28;20102;-73
2023/07/27 04:10:53;;;;;;;27.45;11.57;;;;;;;-144.73;100.00;54481.59;4967748;28;20041;-73
2023/07/27 04:13:18;;;;;;;22.60;11.20;;;;;;;-144.73;100.00;54489.81;4949370;28;20038;-73
2023/07/27 04:15:44;;;;;;;21.55;11.35;;;;;;;-144.73;100.00;54510.31;4985704;28;20037;-73
2023/07/27 04:18:09;;;;;;;28.30;11.57;;;;;;;-144.73;100.00;54491.84;4940290;28;20131;-73
2023/07/27 04:20:34;;;;;;;25.13;11.55;;;;;;;-144.73;100.00;54604.75;4906109;28;20040;-73
2023/07/27 04:23:00;;;;;;;31.38;12.45;;;;;;;-144.73;100.00;54485.69;4905630;28;20039;-74
2023/07/27 04:25:25;;;;;;;22.83;11.95;;;;;;;-144.73;100.00;54500.06;4914864;28;20021;-73
2023/07/27 04:27:51;;;;;;;36.17;12.68;;;;;;;-144.73;100.00;54485.69;4913084;28;20448;-73
2023/07/27 04:30:17;;;;;;;35.28;13.55;;;;;;;-144.73;100.00;54530.84;4916302;28;20024;-73
2023/07/27 04:32:42;;;;;;;23.48;11.90;;;;;;;-144.73;100.00;54512.38;4929948;28;20039;-73
2023/07/27 04:35:07;;;;;;;26.77;12.15;;;;;;;-144.73;100.00;54502.13;4955263;28;20020;-73
2023/07/27 04:37:33;;;;;;;23.63;12.38;;;;;;;-144.73;100.00;54514.44;4969213;28;20079;-73
2023/07/27 04:39:58;;;;;;;24.33;11.98;;;;;;;-144.73;100.00;54498.00;4901828;28;20055;-73
2023/07/27 04:42:24;;;;;;;28.20;13.60;;;;;;;-144.73;100.00;54549.31;4907984;28;20461;-73
2023/07/27 04:44:49;;;;;;;27.67;13.52;;;;;;;-144.73;100.00;54498.00;4909958;28;20031;-73
2023/07/27 04:47:14;;;;;;;28.88;12.65;;;;;;;-144.73;100.00;54489.81;4911735;28;20025;-74
2023/07/27 04:49:40;;;;;;;25.20;12.90;;;;;;;-144.73;100.00;54522.63;4926066;28;20044;-74
2023/07/27 04:52:06;;;;;;;25.85;12.68;;;;;;;-144.73;100.00;54493.91;4958520;28;20024;-73
2023/07/27 04:54:31;;;;;;;25.13;12.73;;;;;;;-144.73;100.00;54481.59;4929493;28;20037;-73
2023/07/27 04:56:56;;;;;;;26.70;12.98;;;;;;;-144.73;100.00;54506.22;4953834;28;20494;-74
2023/07/27 04:59:21;;;;;;;26.95;13.40;;;;;;;-144.73;100.00;54514.44;4931927;28;20055;-73
2023/07/27 05:01:47;;;;;;;23.17;12.90;;;;;;;-144.73;100.00;54502.13;4913379;28;20067;-74
2023/07/27 05:04:12;;;;;;;25.90;13.10;;;;;;;-144.73;100.00;54530.84;5009271;28;20079;-74
2023/07/27 05:06:39;;;;;;;24.75;12.00;;;;;;;-144.73;100.00;54524.69;4911020;28;20020;-73
2023/07/27 05:09:05;;;;;;;23.58;12.43;;;;;;;-144.73;100.00;54508.28;4952337;28;20057;-74
2023/07/27 05:11:30;;;;;;;26.50;14.13;;;;;;;-144.73;100.00;54491.84;4960547;28;20115;-73
2023/07/27 05:13:56;;;;;;;24.77;12.88;;;;;;;-144.73;100.00;54473.38;4966493;28;20037;-73
2023/07/27 05:16:21;;;;;;;25.00;12.73;;;;;;;-144.73;100.00;54547.28;5026213;28;20036;-73
2023/07/27 05:18:46;;;;;;;23.40;11.82;;;;;;;-144.73;100.00;54502.13;4975096;28;20037;-73
2023/07/27 05:21:12;;;;;;;24.70;12.40;;;;;;;-144.73;100.00;54498.00;4975739;28;20029;-74
2023/07/27 05:23:37;;;;;;;23.60;12.88;;;;;;;-144.73;100.00;54500.06;4930899;28;20043;-74
2023/07/27 05:26:03;;;;;;;30.67;11.85;;;;;;;-144.73;100.00;54514.44;5009533;28;20021;-74
2023/07/27 05:28:28;;;;;;;29.92;12.57;;;;;;;-144.73;100.00;54551.38;5025881;28;20049;-73
2023/07/27 05:30:54;;;;;;;24.75;13.25;;;;;;;-144.73;100.00;54489.81;4987948;28;20059;-74
2023/07/27 05:33:19;;;;;;;32.00;13.20;;;;;;;-144.73;100.00;54530.84;5009419;28;20043;-73
2023/07/27 05:35:50;;;;;;;28.83;12.45;;;;;;;-144.73;100.00;54518.53;5009315;28;20039;-74
2023/07/27 05:38:20;;;;;;;26.50;13.98;;;;;;;-144.73;100.00;54518.53;4968402;28;20036;-74
2023/07/27 05:40:45;;;;;;;24.67;12.38;;;;;;;-144.73;100.00;54530.84;4956527;28;20022;-74
2023/07/27 05:43:10;;;;;;;27.30;12.82;;;;;;;-144.73;100.00;54477.47;5005378;28;20055;-74
2023/07/27 05:45:37;;;;;;;26.77;12.52;;;;;;;-144.73;100.00;54514.44;4962730;28;20391;-74
2023/07/27 05:48:04;;;;;;;22.80;12.52;;;;;;;-144.73;100.00;54516.47;4948487;28;20048;-74
2023/07/27 05:50:29;;;;;;;27.08;12.10;;;;;;;-144.73;100.00;54600.63;4910906;29;20032;-74
2023/07/27 05:52:54;;;;;;;25.10;12.68;;;;;;;-144.73;100.00;54477.47;4910548;28;20074;-74
2023/07/27 05:55:20;;;;;;;22.58;11.85;;;;;;;-144.73;100.00;54512.38;4910488;28;20039;-74
2023/07/27 05:57:45;;;;;;;20.92;12.13;;;;;;;-144.73;100.00;54514.44;4927410;28;20036;-75
2023/07/27 06:00:11;;;;;;;32.85;12.52;;;;;;;-144.73;100.00;54530.84;4946521;28;20030;-75
2023/07/27 06:02:36;;;;;;;29.40;11.93;;;;;;;-144.73;100.00;54506.22;4911807;28;20024;-75
2023/07/27 06:05:02;;;;;;;22.75;12.40;;;;;;;-144.73;100.00;54522.63;4996566;28;20111;-75
2023/07/27 06:07:27;;;;;;;26.23;11.40;;;;;;;-144.73;100.00;54506.22;4929773;28;20131;-75
2023/07/27 06:09:53;;;;;;;25.60;11.38;;;;;;;-144.73;100.00;54498.00;4946568;28;20020;-74
2023/07/27 06:12:18;;;;;;;20.98;11.77;;;;;;;-144.73;100.00;54522.63;4921235;28;20035;-74
2023/07/27 06:14:44;;;;;;;25.63;12.32;;;;;;;-144.73;100.00;54518.53;4977690;28;20107;-73
2023/07/27 06:17:10;;;;;;;20.15;11.73;;;;;;;-144.73;100.00;54489.81;4952593;28;20109;-74
2023/07/27 06:19:35;;;;;;;21.30;11.15;;;;;;;-144.73;100.00;54508.28;5026814;28;20136;-74
2023/07/27 06:22:01;;;;;;;19.50;10.35;;;;;;;-144.73;100.00;54510.31;4948181;28;20030;-74
2023/07/27 06:24:26;;;;;;;21.40;11.23;;;;;;;-144.73;100.00;54502.13;5008688;28;20040;-73
2023/07/27 06:26:52;;;;;;;15.95;9.15;;;;;;;-144.73;100.00;54481.59;4937336;28;20438;-74
2023/07/27 06:29:20;;;;;;;16.15;10.52;;;;;;;-144.73;100.00;54489.81;4969991;28;20045;-75
2023/07/27 06:31:46;;;;;;;22.85;11.10;;;;;;;-144.73;100.00;54539.06;5009449;28;20020;-75
2023/07/27 06:34:11;;;;;;;18.67;10.93;;;;;;;-144.73;100.00;54555.47;4916370;28;20044;-74
2023/07/27 06:36:37;;;;;;;21.38;11.40;;;;;;;-144.73;100.00;54485.69;4916843;28;20082;-75
2023/07/27 06:39:02;;;;;;;27.08;10.70;;;;;;;-144.73;100.00;54506.22;4926142;28;20099;-75
2023/07/27 06:41:27;;;;;;;19.80;9.93;;;;;;;-144.73;100.00;54530.84;4911322;28;20059;-75
2023/07/27 06:43:53;;;;;;;19.35;10.38;;;;;;;-144.73;100.00;54524.69;4939538;28;20032;-75
2023/07/27 06:46:19;;;;;;;18.13;9.25;;;;;;;-144.73;100.00;54524.69;4943836;28;20044;-75
2023/07/27 06:48:46;;;;;;;21.90;11.00;;;;;;;-144.73;100.00;54502.13;4937250;28;20082;-75
2023/07/27 06:51:12;;;;;;;24.65;10.27;;;;;;;-144.73;100.00;54502.13;4948283;28;20115;-75
2023/07/27 06:53:37;;;;;;;28.92;10.43;;;;;;;-144.73;100.00;54518.53;4929006;28;20035;-76
2023/07/27 06:56:04;;;;;;;18.33;9.30;;;;;;;-144.73;100.00;54547.28;4914661;28;20028;-75
2023/07/27 06:58:30;;;;;;;19.50;9.55;;;;;;;-144.73;100.00;54539.06;4918161;28;20044;-75
2023/07/27 07:00:55;;;;;;;22.40;10.60;;;;;;;-144.73;100.00;54514.44;4993169;28;20022;-76
2023/07/27 07:03:21;;;;;;;19.85;9.30;;;;;;;-144.73;100.00;54485.69;4968521;28;20122;-76
2023/07/27 07:05:46;;;;;;;17.65;9.27;;;;;;;-144.73;100.00;54514.44;4973909;28;20017;-75
2023/07/27 07:08:12;;;;;;;20.45;9.15;;;;;;;-144.73;100.00;54485.69;4970385;28;20034;-75
2023/07/27 07:10:37;;;;;;;23.13;8.63;;;;;;;-144.73;100.00;54504.16;5007608;28;20022;-75
2023/07/27 07:13:03;;;;;;;14.48;9.00;;;;;;;-144.73;100.00;54528.81;4961266;28;20036;-76
2023/07/27 07:15:30;;;;;;;15.43;9.45;;;;;;;-144.73;100.00;54473.38;4948953;28;20098;-76
2023/07/27 07:17:56;;;;;;;16.27;8.80;;;;;;;-144.73;100.00;54510.31;4922394;28;20028;-75
2023/07/27 07:20:21;;;;;;;18.98;9.48;;;;;;;-144.73;100.00;54487.75;4913603;28;20038;-76
2023/07/27 07:22:46;;;;;;;17.05;9.20;;;;;;;-144.73;100.00;54498.00;4913968;28;20040;-76
2023/07/27 07:25:12;;;;;;;16.33;8.73;;;;;;;-144.73;100.00;54502.13;5011684;28;20043;-76
2023/07/27 07:27:37;;;;;;;21.70;8.60;;;;;;;-144.73;100.00;54504.16;4913241;28;20063;-76
2023/07/27 07:30:04;;;;;;;19.63;9.93;;;;;;;-144.73;100.00;54481.59;4959179;28;20026;-76
2023/07/27 07:32:31;;;;;;;14.73;9.45;;;;;;;-144.73;100.00;54477.47;4971889;28;20481;-76
2023/07/27 07:34:57;;;;;;;20.10;7.97;;;;;;;-144.73;100.00;54485.69;4962709;28;20116;-76
2023/07/27 07:37:23;;;;;;;20.20;9.38;;;;;;;-144.73;100.00;54504.16;4921527;28;20059;-71
2023/07/27 07:39:48;;;;;;;13.82;7.93;;;;;;;-144.73;100.00;54469.28;4916026;28;20467;-71
2023/07/27 07:42:13;;;;;;;22.10;8.70;;;;;;;-144.73;100.00;54481.59;4912028;28;20147;-72
2023/07/27 07:44:39;;;;;;;17.10;8.68;;;;;;;-144.73;100.00;54506.22;4933709;28;20040;-70
2023/07/27 07:47:04;;;;;;;14.40;7.97;;;;;;;-144.73;100.00;54489.81;4917358;28;20064;-70
2023/07/27 07:49:29;;;;;;;21.25;8.00;;;;;;;-144.73;100.00;54510.31;4916565;28;20032;-71
2023/07/27 07:51:55;;;;;;;15.65;7.90;;;;;;;-144.73;100.00;54518.53;4924273;28;20028;-71
2023/07/27 07:54:20;;;;;;;22.45;8.68;;;;;;;-144.73;100.00;54506.22;4955410;28;20036;-71
2023/07/27 07:56:47;;;;;;;19.92;9.00;;;;;;;-144.73;100.00;54526.75;4919082;28;20032;-72
2023/07/27 07:59:14;;;;;;;23.90;8.32;;;;;;;-144.73;100.00;54506.22;4911159;28;20044;-72
2023/07/27 08:01:39;;;;;;;15.82;8.13;;;;;;;-144.73;100.00;54471.31;4912754;28;20024;-72
2023/07/27 08:04:05;;;;;;;15.20;8.70;;;;;;;-144.73;100.00;54506.22;4910775;28;20508;-70
2023/07/27 08:06:30;;;;;;;21.70;7.63;;;;;;;-144.73;100.00;54489.81;4912294;28;20036;-70
2023/07/27 08:08:56;;;;;;;16.23;7.75;;;;;;;-144.73;100.00;54539.06;4919295;28;20110;-71
2023/07/27 08:11:21;;;;;;;14.95;8.60;;;;;;;-144.73;100.00;54498.00;4918762;28;20040;-71
2023/07/27 08:13:46;;;;;;;17.35;8.73;;;;;;;-144.73;100.00;54516.47;4947891;28;20052;-71
2023/07/27 08:16:12;;;;;;;17.05;8.98;;;;;;;-144.73;100.00;54489.81;4914813;28;20063;-71
2023/07/27 08:18:37;;;;;;;19.50;8.23;;;;;;;-144.73;100.00;54522.63;4945014;28;20401;-71
2023/07/27 08:21:05;;;;;;;16.38;8.35;;;;;;;-144.73;100.00;54506.22;4964948;28;20026;-71
2023/07/27 08:23:30;;;;;;;16.27;8.73;;;;;;;-144.73;100.00;54516.47;5006038;28;20088;-71
2023/07/27 08:25:57;;;;;;;16.10;7.60;;;;;;;-144.73;100.00;54502.13;4926323;28;20032;-70
2023/07/27 08:28:23;;;;;;;23.02;8.80;;;;;;;-144.73;100.00;54547.28;4949859;28;20064;-71
2023/07/27 08:30:49;;;;;;;18.65;8.55;;;;;;;-144.73;100.00;54448.75;4950168;28;20024;-70
2023/07/27 08:33:15;;;;;;;17.27;8.98;;;;;;;-144.73;100.00;54498.00;4910151;28;20033;-71
2023/07/27 08:35:40;;;;;;;18.13;8.80;;;;;;;-144.73;100.00;54487.75;4950008;28;20016;-72
2023/07/27 08:38:09;;;;;;;14.50;8.07;;;;;;;-144.73;100.00;54502.13;4913582;28;20032;-71
2023/07/27 08:40:34;;;;;;;15.80;7.80;;;;;;;-144.73;100.00;54469.28;4914286;28;20035;-70
2023/07/27 08:43:04;;;;;;;17.15;8.43;;;;;;;-144.73;100.00;54475.44;4950769;28;20121;-71
2023/07/27 08:45:30;;;;;;;15.65;7.80;;;;;;;-144.73;100.00;54506.22;4936029;28;20117;-71
2023/07/27 08:47:55;;;;;;;12.05;7.18;;;;;;;-144.73;100.00;54502.13;4915188;28;20051;-71
2023/07/27 08:50:22;;;;;;;15.40;7.40;;;;;;;-144.73;100.00;54473.38;5009242;28;20058;-71
2023/07/27 08:52:48;;;;;;;13.73;7.32;;;;;;;-144.73;100.00;54467.22;4950489;28;20034;-71
2023/07/27 08:55:15;;;;;;;16.38;8.60;;;;;;;-144.73;100.00;54518.53;4966148;28;20026;-70
2023/07/27 08:57:41;;;;;;;14.13;7.80;;;;;;;-144.73;100.00;54522.63;4967580;28;20038;-72
2023/07/27 09:00:09;;;;;;;20.65;7.78;;;;;;;-144.73;100.00;54514.44;4924870;28;20111;-71
2023/07/27 09:02:35;;;;;;;13.60;7.82;;;;;;;-144.73;100.00;54512.38;4976753;28;20074;-71
2023/07/27 09:05:00;;;;;;;15.43;7.80;;;;;;;-144.73;100.00;54469.28;4954457;28;20034;-71
2023/07/27 09:07:26;;;;;;;16.02;7.90;;;;;;;-144.73;100.00;54510.31;4932872;28;20028;-71
2023/07/27 09:09:52;;;;;;;12.80;8.15;;;;;;;-144.73;100.00;54485.69;4928350;28;20024;-72
2023/07/27 09:12:19;;;;;;;14.65;9.07;;;;;;;-144.73;100.00;54502.13;4951030;28;20028;-72
2023/07/27 09:14:44;;;;;;;13.10;8.10;;;;;;;-144.73;100.00;54520.59;4969755;28;20044;-71
2023/07/27 09:17:13;;;;;;;22.58;9.07;;;;;;;-144.73;100.00;54510.31;4928133;28;20180;-71
2023/07/27 09:19:40;;;;;;;12.90;8.40;;;;;;;-144.73;100.00;54465.16;4933477;28;20043;-71
2023/07/27 09:22:07;;;;;;;14.40;8.05;;;;;;;-144.73;100.00;54489.81;4912136;28;20026;-70
2023/07/27 09:24:33;;;;;;;12.50;7.72;;;;;;;-144.73;100.00;54489.81;4914990;28;20035;-71
2023/07/27 09:27:01;;;;;;;11.48;7.07;;;;;;;-144.73;100.00;54473.38;4909893;28;20036;-70
2023/07/27 09:29:27;;;;;;;13.98;7.47;;;;;;;-144.73;100.00;54530.84;4915306;28;20118;-71
2023/07/27 09:31:57;;;;;;;8.75;7.63;;;;;;;-144.73;100.00;54510.31;4918691;28;20023;-71
2023/07/27 09:34:23;;;;;;;12.05;8.00;;;;;;;-144.73;100.00;54512.38;5000916;28;20059;-71
2023/07/27 09:36:49;;;;;;;12.38;8.18;;;;;;;-144.73;100.00;54510.31;4911744;29;20029;-71
2023/07/27 09:39:15;;;;;;;14.43;7.53;;;;;;;-144.73;100.00;54469.28;4926188;28;20522;-71
2023/07/27 09:41:45;;;;;;;14.07;7.22;;;;;;;-144.73;100.00;54545.22;4938860;28;20032;-71
2023/07/27 09:44:15;;;;;;;17.38;7.75;;;;;;;-144.73;100.00;54452.84;4989541;28;20037;-76
2023/07/27 09:46:42;;;;;;;15.27;7.97;;;;;;;-144.73;100.00;54510.31;4940799;28;20029;-76
2023/07/27 09:49:08;;;;;;;12.13;7.53;;;;;;;-144.73;100.00;54514.44;4963093;28;20128;-76
2023/07/27 09:51:33;;;;;;;14.55;7.22;;;;;;;-144.73;100.00;54508.28;4975086;28;20099;-76
2023/07/27 09:53:59;;;;;;;16.67;7.32;;;;;;;-144.73;100.00;54491.84;4948214;28;20034;-76
2023/07/27 09:56:27;;;;;;;11.50;7.63;;;;;;;-144.73;100.00;54514.44;4946176;28;20063;-77
2023/07/27 09:58:53;;;;;;;17.45;8.50;;;;;;;-144.73;100.00;54487.75;4920297;28;20039;-76
2023/07/27 10:01:19;;;;;;;17.88;7.97;;;;;;;-144.73;100.00;54508.28;4960746;28;20509;-76
2023/07/27 10:03:45;;;;;;;17.58;8.75;;;;;;;-144.73;100.00;54506.22;5009584;28;20036;-77
2023/07/27 10:06:14;;;;;;;15.48;7.70;;;;;;;-144.73;100.00;54481.59;4916979;28;20060;-76
2023/07/27 10:08:40;;;;;;;19.02;8.30;;;;;;;-144.73;100.00;54452.84;4910727;28;20040;-76
2023/07/27 10:11:06;;;;;;;15.45;7.70;;;;;;;-144.73;100.00;54502.13;4910507;28;20020;-77
2023/07/27 10:13:37;;;;;;;13.25;7.60;;;;;;;-144.73;100.00;54493.91;4912044;28;20434;-75
2023/07/27 10:16:07;;;;;;;19.88;7.97;;;;;;;-144.73;100.00;54481.59;4912041;28;20075;-77
2023/07/27 10:18:39;;;;;;;12.07;6.88;;;;;;;-144.73;100.00;54502.13;4973853;28;20033;-76
2023/07/27 10:21:24;;;;;;;15.85;6.93;;;;;;;-144.73;100.00;54454.91;4936539;28;20020;-77
2023/07/27 10:23:56;;;;;;;11.70;7.18;;;;;;;-144.73;100.00;54498.00;4999652;28;20409;-77
2023/07/27 10:26:43;;;;;;;13.63;8.05;;;;;;;-144.73;100.00;54485.69;4933480;28;20105;-76
2023/07/27 10:29:26;;;;;;;14.18;7.55;;;;;;;-144.73;100.00;54510.31;4920884;28;20048;-77
2023/07/27 10:32:10;;;;;;;12.73;7.50;;;;;;;-144.73;100.00;54467.22;5007602;28;20028;-77
2023/07/27 10:34:38;;;;;;;12.07;7.22;;;;;;;-144.73;100.00;54485.69;4938085;28;20060;-77
2023/07/27 10:37:05;;;;;;;12.32;6.85;;;;;;;-144.73;100.00;54518.53;4914850;28;20123;-77
2023/07/27 10:39:41;;;;;;;13.82;6.88;;;;;;;-144.73;100.00;54485.69;4926515;28;20086;-77
2023/07/27 10:42:12;;;;;;;16.50;7.25;;;;;;;-144.73;100.00;54510.31;4999475;28;20025;-77
2023/07/27 10:44:54;;;;;;;11.67;7.13;;;;;;;-144.73;100.00;54526.75;4979430;28;20038;-77
2023/07/27 10:47:22;;;;;;;13.82;7.70;;;;;;;-144.73;100.00;54489.81;4976896;28;20024;-77
2023/07/27 10:49:54;;;;;;;14.93;6.57;;;;;;;-144.73;100.00;54469.28;4988106;28;20048;-77
2023/07/27 10:52:22;;;;;;;;;;;;;;;-144.73;100.00;54465.16;4967871;28;20059;-76
2023/07/27 10:54:49;;;;;;;16.65;7.57;;;;;;;-144.73;100.00;54473.38;4995783;28;19921;-77
2023/07/27 10:57:17;;;;;;;11.50;6.88;;;;;;;-144.73;100.00;54430.28;4952780;28;20036;-77
2023/07/27 10:59:47;;;;;;;14.20;8.10;;;;;;;-144.73;100.00;54512.38;4927255;28;20032;-77